createdAt,value
2022-11-15T00:01:28.135Z,15.80
2022-11-15T00:03:56.893Z,16.70
2022-11-15T00:06:25.667Z,16.00
2022-11-15T00:08:54.446Z,13.90
2022-11-15T00:11:23.238Z,15.60
2022-11-15T00:13:52.182Z,16.30
2022-11-15T00:16:20.923Z,17.50
2022-11-15T00:18:51.060Z,16.20
2022-11-15T00:21:19.948Z,14.90
2022-11-15T00:23:48.975Z,17.30
2022-11-15T00:26:17.823Z,17.00
2022-11-15T00:28:46.851Z,15.60
2022-11-15T00:31:15.675Z,14.10
2022-11-15T00:33:45.072Z,15.60
2022-11-15T00:36:13.919Z,15.10
2022-11-15T00:38:42.729Z,15.00
2022-11-15T00:41:11.592Z,15.00
2022-11-15T00:43:41.197Z,13.90
2022-11-15T00:46:10.867Z,14.80
2022-11-15T00:48:39.691Z,15.50
2022-11-15T00:51:08.623Z,13.90
2022-11-15T00:53:37.371Z,13.50
2022-11-15T00:56:06.294Z,14.90
2022-11-15T00:58:35.043Z,15.90
2022-11-15T01:01:21.938Z,15.10
2022-11-15T01:03:50.747Z,15.00
2022-11-15T01:06:19.961Z,15.50
2022-11-15T01:08:48.742Z,15.30
2022-11-15T01:11:17.549Z,15.80
2022-11-15T01:13:46.300Z,14.80
2022-11-15T01:16:18.019Z,12.50
2022-11-15T01:18:46.852Z,15.10
2022-11-15T01:21:17.659Z,14.80
2022-11-15T01:23:46.393Z,13.40
2022-11-15T01:26:16.248Z,15.10
2022-11-15T01:28:45.007Z,15.00
2022-11-15T01:31:15.518Z,15.30
2022-11-15T01:33:44.542Z,14.80
2022-11-15T01:36:14.730Z,13.60
2022-11-15T01:38:43.678Z,15.30
2022-11-15T01:41:19.579Z,15.30
2022-11-15T01:43:50.389Z,13.40
2022-11-15T01:46:19.175Z,15.00
2022-11-15T01:48:48.076Z,15.70
2022-11-15T01:51:18.695Z,15.50
2022-11-15T01:53:49.770Z,13.00
2022-11-15T01:56:21.956Z,14.50
2022-11-15T01:58:52.566Z,15.80
2022-11-15T02:01:21.642Z,15.10
2022-11-15T02:03:57.747Z,14.50
2022-11-15T02:06:26.523Z,16.70
2022-11-15T02:08:55.890Z,16.10
2022-11-15T02:11:24.708Z,13.70
2022-11-15T02:13:53.704Z,13.70
2022-11-15T02:16:22.493Z,14.50
2022-11-15T02:18:58.548Z,15.60
2022-11-15T02:21:36.538Z,15.10
2022-11-15T02:24:11.490Z,14.80
2022-11-15T02:27:12.868Z,14.90
2022-11-15T02:29:41.703Z,15.90
2022-11-15T02:32:19.331Z,13.40
2022-11-15T02:34:48.064Z,13.30
2022-11-15T02:37:29.861Z,15.00
2022-11-15T02:40:21.622Z,14.30
2022-11-15T02:43:12.653Z,13.30
2022-11-15T02:45:45.333Z,14.70
2022-11-15T02:48:15.073Z,15.20
2022-11-15T02:50:44.219Z,15.50
2022-11-15T02:53:13.079Z,15.00
2022-11-15T02:55:46.407Z,14.20
2022-11-15T02:58:34.137Z,14.40
2022-11-15T03:01:23.164Z,15.70
2022-11-15T03:04:10.543Z,14.30
2022-11-15T03:06:39.281Z,16.10
2022-11-15T03:09:20.431Z,16.60
2022-11-15T03:11:51.252Z,14.80
2022-11-15T03:14:22.714Z,15.30
2022-11-15T03:16:54.473Z,16.60
2022-11-15T03:19:32.196Z,16.80
2022-11-15T03:22:02.247Z,14.70
2022-11-15T03:24:31.808Z,16.00
2022-11-15T03:27:02.076Z,16.20
2022-11-15T03:29:34.085Z,15.60
2022-11-15T03:32:14.102Z,14.20
2022-11-15T03:34:49.013Z,14.20
2022-11-15T03:37:18.578Z,14.60
2022-11-15T03:39:47.427Z,15.30
2022-11-15T03:42:31.912Z,16.40
2022-11-15T03:45:09.309Z,15.30
2022-11-15T03:47:49.457Z,15.50
2022-11-15T03:50:19.565Z,15.50
2022-11-15T03:52:49.448Z,14.30
2022-11-15T03:55:20.232Z,14.20
2022-11-15T03:57:51.436Z,15.50
2022-11-15T04:00:20.259Z,16.60
2022-11-15T04:02:49.056Z,15.30
2022-11-15T04:05:17.917Z,14.40
2022-11-15T04:07:46.641Z,16.30
2022-11-15T04:10:16.048Z,15.70
2022-11-15T04:12:48.293Z,14.80
2022-11-15T04:15:18.713Z,15.20
2022-11-15T04:17:49.228Z,15.30
2022-11-15T04:20:40.485Z,15.70
2022-11-15T04:23:32.152Z,15.80
2022-11-15T04:26:02.709Z,15.70
2022-11-15T04:28:31.517Z,16.50
2022-11-15T04:31:00.598Z,15.40
2022-11-15T04:33:29.652Z,14.40
2022-11-15T04:36:17.155Z,14.50
2022-11-15T04:38:45.946Z,14.50
2022-11-15T04:41:14.658Z,15.40
2022-11-15T04:43:43.525Z,15.00
2022-11-15T04:46:12.303Z,15.00
2022-11-15T04:48:41.053Z,15.50
2022-11-15T04:51:09.873Z,15.80
2022-11-15T04:53:38.646Z,14.00
2022-11-15T04:56:07.524Z,14.50
2022-11-15T04:58:36.369Z,15.00
2022-11-15T05:01:13.153Z,16.00
2022-11-15T05:04:01.027Z,14.60
2022-11-15T05:06:30.383Z,13.10
2022-11-15T05:08:59.596Z,14.60
2022-11-15T05:11:28.481Z,15.90
2022-11-15T05:13:57.349Z,14.30
2022-11-15T05:16:26.236Z,14.40
2022-11-15T05:18:55.052Z,13.80
2022-11-15T05:21:23.840Z,14.70
2022-11-15T05:23:52.597Z,14.20
2022-11-15T05:26:21.439Z,13.90
2022-11-15T05:28:55.144Z,14.70
2022-11-15T05:31:24.359Z,15.00
2022-11-15T05:33:53.296Z,15.00
2022-11-15T05:36:34.872Z,14.60
2022-11-15T05:39:04.590Z,13.10
2022-11-15T05:41:39.596Z,14.80
2022-11-15T05:44:10.049Z,15.00
2022-11-15T05:46:40.446Z,14.20
2022-11-15T05:49:11.839Z,13.20
2022-11-15T05:51:41.021Z,14.90
2022-11-15T05:54:10.545Z,14.70
2022-11-15T05:56:39.603Z,13.80
2022-11-15T05:59:09.343Z,13.20
2022-11-15T06:01:38.924Z,14.20
2022-11-15T06:04:07.818Z,14.50
2022-11-15T06:06:36.586Z,14.80
2022-11-15T06:09:05.364Z,14.90
2022-11-15T06:11:34.179Z,14.10
2022-11-15T06:14:03.469Z,16.00
2022-11-15T06:16:32.547Z,14.30
2022-11-15T06:19:01.336Z,14.20
2022-11-15T06:21:30.278Z,13.80
2022-11-15T06:23:59.030Z,15.50
2022-11-15T06:26:28.368Z,14.90
2022-11-15T06:28:57.130Z,13.60
2022-11-15T06:31:25.886Z,14.40
2022-11-15T06:33:54.684Z,13.70
2022-11-15T06:36:23.426Z,14.10
2022-11-15T06:38:52.207Z,13.60
2022-11-15T06:41:22.301Z,13.30
2022-11-15T06:43:51.053Z,13.50
2022-11-15T06:46:19.834Z,13.70
2022-11-15T06:48:50.253Z,12.20
2022-11-15T06:51:18.985Z,11.80
2022-11-15T06:53:47.839Z,12.70
2022-11-15T06:56:16.602Z,12.60
2022-11-15T06:58:45.443Z,12.60
2022-11-15T07:01:14.317Z,11.30
2022-11-15T07:03:43.346Z,13.00
2022-11-15T07:06:12.224Z,12.50
2022-11-15T07:08:42.704Z,10.00
2022-11-15T07:11:11.584Z,13.20
2022-11-15T07:13:40.425Z,12.80
2022-11-15T07:16:11.202Z,12.40
2022-11-15T07:18:40.645Z,12.70
2022-11-15T07:21:11.148Z,11.80
2022-11-15T07:23:40.370Z,10.70
2022-11-15T07:26:09.499Z,11.40
2022-11-15T07:28:38.643Z,11.30
2022-11-15T07:31:09.120Z,11.50
2022-11-15T07:33:37.988Z,10.40
2022-11-15T07:36:07.581Z,10.80
2022-11-15T07:38:42.598Z,12.30
2022-11-15T07:41:11.888Z,11.70
2022-11-15T07:43:40.698Z,11.00
2022-11-15T07:46:10.638Z,11.70
2022-11-15T07:48:44.815Z,12.10
2022-11-15T07:51:18.001Z,10.40
2022-11-15T07:53:46.821Z,11.10
2022-11-15T07:56:15.669Z,11.20
2022-11-15T07:58:46.553Z,11.00
2022-11-15T08:01:15.423Z,10.90
2022-11-15T08:03:44.246Z,11.80
2022-11-15T08:06:13.004Z,11.50
2022-11-15T08:08:41.766Z,11.90
2022-11-15T08:11:10.492Z,10.50
2022-11-15T08:13:39.341Z,10.50
2022-11-15T08:16:09.286Z,12.20
2022-11-15T08:18:38.088Z,12.10
2022-11-15T08:21:06.889Z,11.10
2022-11-15T08:23:35.884Z,10.90
2022-11-15T08:26:05.432Z,12.40
2022-11-15T08:28:34.231Z,11.50
2022-11-15T08:31:03.712Z,12.70
2022-11-15T08:33:34.091Z,11.50
2022-11-15T08:36:03.232Z,10.90
2022-11-15T08:38:32.674Z,12.10
2022-11-15T08:41:03.728Z,10.90
2022-11-15T08:43:32.776Z,11.10
2022-11-15T08:46:01.875Z,12.20
2022-11-15T08:48:31.011Z,12.70
2022-11-15T08:51:00.017Z,11.30
2022-11-15T08:53:28.832Z,10.80
2022-11-15T08:55:58.156Z,10.00
2022-11-15T08:58:27.992Z,10.30
2022-11-15T09:00:57.062Z,9.20
2022-11-15T09:03:26.762Z,10.80
2022-11-15T09:05:57.093Z,10.70
2022-11-15T09:08:46.601Z,10.80
2022-11-15T09:11:17.619Z,9.30
2022-11-15T09:13:46.819Z,11.20
2022-11-15T09:16:16.615Z,10.30
2022-11-15T09:18:45.845Z,10.50
2022-11-15T09:21:15.556Z,12.30
2022-11-15T09:23:44.482Z,11.30
2022-11-15T09:26:13.938Z,12.20
2022-11-15T09:28:43.695Z,11.90
2022-11-15T09:31:14.926Z,10.90
2022-11-15T09:33:47.387Z,10.60
2022-11-15T09:36:17.952Z,10.20
2022-11-15T09:38:47.181Z,10.40
2022-11-15T09:41:16.017Z,9.70
2022-11-15T09:43:51.923Z,11.20
2022-11-15T09:46:44.146Z,12.00
2022-11-15T09:49:16.707Z,9.90
2022-11-15T09:51:50.954Z,11.00
2022-11-15T09:57:33.830Z,13.10
2022-11-15T10:00:38.983Z,12.00
2022-11-15T10:02:57.292Z,10.90
2022-11-15T10:05:27.144Z,10.20
2022-11-15T10:07:56.876Z,10.10
2022-11-15T10:10:43.084Z,9.10
2022-11-15T10:13:24.764Z,10.90
2022-11-15T10:15:55.729Z,11.00
2022-11-15T10:18:29.601Z,11.10
2022-11-15T10:20:59.859Z,11.20
2022-11-15T10:23:29.409Z,11.70
2022-11-15T10:26:05.337Z,10.00
2022-11-15T10:28:36.003Z,11.10
2022-11-15T10:31:21.859Z,10.40
2022-11-15T10:33:50.882Z,12.00
2022-11-15T10:36:21.752Z,12.50
2022-11-15T10:38:50.522Z,12.10
2022-11-15T10:41:23.638Z,12.90
2022-11-15T10:44:07.649Z,12.30
2022-11-15T10:46:46.650Z,13.30
2022-11-15T10:49:20.684Z,12.30
2022-11-15T10:51:51.217Z,13.30
2022-11-15T10:54:31.412Z,11.90
2022-11-15T10:57:00.937Z,13.20
2022-11-15T10:59:34.891Z,14.30
2022-11-15T11:02:28.503Z,13.60
2022-11-15T11:04:57.767Z,13.80
2022-11-15T11:07:30.644Z,12.90
2022-11-15T11:10:01.355Z,11.70
2022-11-15T11:12:32.546Z,13.10
2022-11-15T11:15:03.060Z,12.90
2022-11-15T11:17:32.616Z,13.70
2022-11-15T11:20:20.712Z,14.80
2022-11-15T11:23:03.573Z,15.30
2022-11-15T11:25:52.585Z,14.80
2022-11-15T11:28:30.757Z,14.30
2022-11-15T11:31:18.371Z,13.30
2022-11-15T11:33:56.299Z,13.90
2022-11-15T11:36:34.550Z,13.30
2022-11-15T11:39:09.632Z,12.60
2022-11-15T11:41:45.232Z,14.00
2022-11-15T11:44:20.294Z,13.80
2022-11-15T11:46:49.663Z,15.10
2022-11-15T11:49:24.289Z,15.10
2022-11-15T11:52:04.002Z,14.60
2022-11-15T11:54:34.669Z,14.60
2022-11-15T11:57:06.048Z,13.40
2022-11-15T12:00:07.685Z,11.70
2022-11-15T12:02:40.188Z,12.40
2022-11-15T12:05:12.985Z,13.70
2022-11-15T12:07:42.935Z,13.70
2022-11-15T12:10:23.927Z,14.00
2022-11-15T12:12:56.780Z,13.90
2022-11-15T12:15:51.842Z,14.20
2022-11-15T12:18:20.729Z,12.60
2022-11-15T12:20:55.937Z,14.30
2022-11-15T12:23:29.899Z,14.00
2022-11-15T12:26:04.995Z,14.60
2022-11-15T12:29:07.001Z,16.00
2022-11-15T12:31:42.107Z,15.80
2022-11-15T12:34:20.118Z,15.70
2022-11-15T12:36:52.466Z,16.60
2022-11-15T12:39:21.971Z,15.60
2022-11-15T12:41:56.544Z,15.10
2022-11-15T12:44:31.488Z,14.50
2022-11-15T12:47:03.577Z,14.70
2022-11-15T12:49:38.230Z,13.70
2022-11-15T12:52:08.225Z,14.00
2022-11-15T12:54:36.966Z,15.80
2022-11-15T12:57:08.378Z,15.50
2022-11-15T12:59:56.003Z,15.10
2022-11-15T13:02:32.370Z,14.00
2022-11-15T13:05:16.537Z,15.20
2022-11-15T13:07:47.989Z,13.90
2022-11-15T13:10:16.814Z,15.40
2022-11-15T13:12:45.537Z,15.70
2022-11-15T13:15:14.344Z,16.40
2022-11-15T13:17:53.337Z,16.10
2022-11-15T13:20:25.007Z,16.00
2022-11-15T13:23:00.577Z,17.00
2022-11-15T13:25:49.004Z,15.30
2022-11-15T13:28:17.755Z,15.00
2022-11-15T13:30:54.532Z,15.00
2022-11-15T13:33:24.667Z,16.10
2022-11-15T13:35:55.705Z,16.90
2022-11-15T13:38:35.406Z,16.60
2022-11-15T13:41:27.087Z,17.00
2022-11-15T13:43:56.949Z,16.00
2022-11-15T13:46:25.713Z,16.60
2022-11-15T13:48:54.459Z,16.80
2022-11-15T13:51:41.547Z,15.10
2022-11-15T13:54:13.534Z,16.80
2022-11-15T13:56:44.862Z,17.50
2022-11-15T13:59:24.707Z,18.00
2022-11-15T14:01:54.741Z,17.80
2022-11-15T14:04:24.740Z,17.70
2022-11-15T14:06:56.243Z,16.30
2022-11-15T14:09:28.172Z,17.20
2022-11-15T14:11:58.022Z,16.40
2022-11-15T14:14:27.874Z,19.10
2022-11-15T14:16:58.106Z,21.20
2022-11-15T14:19:27.082Z,19.90
2022-11-15T14:22:11.092Z,18.60
2022-11-15T14:24:40.451Z,19.60
2022-11-15T14:27:19.632Z,18.90
2022-11-15T14:29:48.977Z,16.70
2022-11-15T14:32:17.767Z,19.90
2022-11-15T14:34:46.849Z,19.40
2022-11-15T14:37:22.080Z,18.00
2022-11-15T14:39:51.384Z,18.40
2022-11-15T14:42:21.071Z,19.80
2022-11-15T14:44:50.040Z,20.60
2022-11-15T14:47:19.109Z,19.90
2022-11-15T14:49:47.954Z,18.90
2022-11-15T14:52:32.710Z,20.00
2022-11-15T14:55:03.394Z,17.70
2022-11-15T14:57:32.351Z,19.80
2022-11-15T15:00:01.177Z,20.50
2022-11-15T15:02:29.964Z,19.20
2022-11-15T15:05:02.154Z,21.00
2022-11-15T15:07:31.299Z,20.50
2022-11-15T15:10:32.526Z,17.10
2022-11-15T15:12:49.316Z,18.20
2022-11-15T15:15:22.790Z,18.70
2022-11-15T15:17:52.199Z,18.60
2022-11-15T15:20:20.976Z,19.10
2022-11-15T15:22:49.732Z,18.80
2022-11-15T15:25:23.163Z,19.10
2022-11-15T15:27:51.954Z,19.40
2022-11-15T15:30:21.015Z,19.70
2022-11-15T15:32:49.976Z,17.60
2022-11-15T15:35:19.448Z,17.60
2022-11-15T15:37:49.215Z,19.00
2022-11-15T15:40:19.273Z,21.20
2022-11-15T15:42:51.586Z,22.20
2022-11-15T15:45:20.543Z,21.30
2022-11-15T15:47:50.507Z,19.20
2022-11-15T15:50:22.726Z,19.10
2022-11-15T15:52:52.440Z,17.20
2022-11-15T15:55:21.690Z,18.10
2022-11-15T15:57:50.716Z,19.70
2022-11-15T16:00:20.019Z,18.40
2022-11-15T16:02:48.823Z,17.80
2022-11-15T16:05:18.475Z,20.20
2022-11-15T16:07:48.564Z,22.00
2022-11-15T16:10:20.104Z,21.90
2022-11-15T16:12:49.711Z,25.20
2022-11-15T16:15:19.186Z,22.40
2022-11-15T16:17:53.491Z,20.50
2022-11-15T16:20:24.871Z,23.80
2022-11-15T16:22:53.606Z,23.90
2022-11-15T16:25:22.511Z,22.70
2022-11-15T16:27:51.311Z,21.90
2022-11-15T16:30:21.461Z,22.90
2022-11-15T16:32:50.506Z,22.70
2022-11-15T16:35:19.513Z,22.80
2022-11-15T16:37:48.393Z,20.50
2022-11-15T16:40:19.910Z,24.80
2022-11-15T16:42:48.806Z,24.40
2022-11-15T16:45:17.797Z,21.20
2022-11-15T16:47:46.594Z,21.30
2022-11-15T16:50:19.837Z,22.80
2022-11-15T16:52:48.602Z,21.10
2022-11-15T16:55:17.484Z,20.00
2022-11-15T16:57:46.402Z,24.60
2022-11-15T17:00:16.742Z,22.00
2022-11-15T17:02:49.056Z,18.50
2022-11-15T17:05:21.394Z,18.30
2022-11-15T17:07:52.402Z,21.90
2022-11-15T17:10:22.142Z,24.30
2022-11-15T17:12:51.943Z,28.10
2022-11-15T17:15:20.832Z,24.80
2022-11-15T17:17:53.768Z,23.10
2022-11-15T17:22:52.748Z,22.20
2022-11-15T17:25:21.580Z,23.90
2022-11-15T17:27:50.432Z,22.30
2022-11-15T17:30:20.371Z,21.60
2022-11-15T17:32:49.873Z,19.70
2022-11-15T17:35:18.658Z,20.70
2022-11-15T17:37:48.409Z,21.50
2022-11-15T17:40:17.246Z,21.80
2022-11-15T17:42:46.034Z,20.00
2022-11-15T17:45:14.881Z,21.10
2022-11-15T17:47:43.698Z,18.90
2022-11-15T17:50:12.544Z,19.20
2022-11-15T17:52:41.365Z,19.90
2022-11-15T17:55:10.163Z,20.40
2022-11-15T17:57:38.924Z,23.80
2022-11-15T18:00:08.181Z,31.00
2022-11-15T18:02:36.914Z,40.20
2022-11-15T18:05:05.925Z,26.80
2022-11-15T18:07:34.863Z,23.30
2022-11-15T18:10:03.738Z,21.10
2022-11-15T18:12:32.547Z,24.60
2022-11-15T18:15:01.587Z,26.40
2022-11-15T18:17:30.365Z,29.30
2022-11-15T18:19:59.305Z,28.70
2022-11-15T18:22:28.426Z,29.30
2022-11-15T18:24:57.215Z,28.50
2022-11-15T18:27:25.975Z,23.00
2022-11-15T18:29:54.819Z,21.00
2022-11-15T18:32:23.574Z,20.10
2022-11-15T18:34:52.379Z,24.30
2022-11-15T18:37:21.189Z,23.40
2022-11-15T18:39:53.854Z,26.00
2022-11-15T18:42:22.880Z,25.80
2022-11-15T18:44:51.673Z,24.20
2022-11-15T18:47:20.492Z,22.90
2022-11-15T18:49:49.223Z,19.80
2022-11-15T18:52:18.031Z,19.10
2022-11-15T18:54:46.781Z,18.40
2022-11-15T18:57:15.576Z,17.90
2022-11-15T18:59:44.378Z,18.20
2022-11-15T19:02:13.305Z,20.20
2022-11-15T19:04:42.183Z,20.40
2022-11-15T19:07:11.426Z,21.90
2022-11-15T19:09:40.279Z,21.80
2022-11-15T19:12:09.131Z,23.10
2022-11-15T19:14:37.910Z,22.80
2022-11-15T19:17:06.727Z,21.20
2022-11-15T19:19:35.483Z,20.50
2022-11-15T19:22:04.269Z,20.60
2022-11-15T19:24:33.165Z,22.30
2022-11-15T19:27:01.957Z,21.40
2022-11-15T19:29:30.737Z,21.10
2022-11-15T19:31:59.841Z,20.50
2022-11-15T19:34:28.686Z,20.90
2022-11-15T19:36:57.482Z,22.00
2022-11-15T19:39:26.333Z,22.10
2022-11-15T19:41:55.359Z,20.20
2022-11-15T19:44:26.384Z,22.90
2022-11-15T19:46:55.160Z,21.50
2022-11-15T19:49:24.024Z,20.80
2022-11-15T19:51:52.828Z,19.30
2022-11-15T19:54:21.631Z,18.60
2022-11-15T19:56:51.797Z,15.90
2022-11-15T19:59:20.541Z,16.70
2022-11-15T20:01:49.330Z,17.40
2022-11-15T20:04:18.189Z,19.40
2022-11-15T20:06:47.628Z,16.60
2022-11-15T20:09:16.677Z,15.30
2022-11-15T20:11:45.552Z,16.20
2022-11-15T20:14:14.404Z,15.70
2022-11-15T20:16:43.264Z,16.90
2022-11-15T20:19:12.759Z,16.00
2022-11-15T20:21:42.395Z,14.50
2022-11-15T20:24:11.232Z,15.90
2022-11-15T20:26:40.127Z,14.80
2022-11-15T20:29:10.083Z,16.70
2022-11-15T20:31:38.973Z,16.40
2022-11-15T20:34:07.753Z,16.40
2022-11-15T20:36:36.525Z,13.90
2022-11-15T20:39:05.310Z,14.90
2022-11-15T20:41:34.246Z,14.10
2022-11-15T20:44:03.267Z,14.60
2022-11-15T20:46:32.066Z,15.50
2022-11-15T20:49:00.837Z,16.80
2022-11-15T20:51:29.630Z,18.00
2022-11-15T20:53:58.388Z,14.50
2022-11-15T20:56:27.210Z,14.60
2022-11-15T20:58:56.666Z,15.50
2022-11-15T21:01:25.815Z,14.20
2022-11-15T21:03:55.282Z,13.50
2022-11-15T21:06:24.844Z,14.00
2022-11-15T21:09:12.755Z,13.30
2022-11-15T21:12:00.344Z,12.60
2022-11-15T21:14:29.133Z,12.80
2022-11-15T21:16:57.975Z,12.70
2022-11-15T21:19:31.395Z,13.30
2022-11-15T21:22:05.197Z,14.00
2022-11-15T21:24:34.141Z,11.10
2022-11-15T21:27:03.139Z,11.70
2022-11-15T21:29:38.183Z,13.20
2022-11-15T21:32:07.601Z,13.30
2022-11-15T21:34:36.751Z,11.80
2022-11-15T21:37:05.888Z,11.80
2022-11-15T21:39:34.751Z,11.50
2022-11-15T21:42:03.614Z,12.50
2022-11-15T21:44:32.443Z,13.10
2022-11-15T21:47:01.343Z,10.90
2022-11-15T21:49:30.124Z,12.00
2022-11-15T21:51:58.991Z,11.50
2022-11-15T21:54:27.820Z,12.00
2022-11-15T21:56:56.592Z,10.90
2022-11-15T21:59:25.394Z,12.20
2022-11-15T22:02:12.890Z,11.60
2022-11-15T22:07:52.076Z,9.30
2022-11-15T22:10:20.800Z,8.10
2022-11-15T22:12:49.628Z,8.70
2022-11-15T22:15:18.414Z,10.00
2022-11-15T22:17:59.656Z,10.80
2022-11-15T22:20:44.210Z,11.30
2022-11-15T22:23:13.590Z,11.00
2022-11-15T22:25:43.153Z,10.20
2022-11-15T22:28:12.020Z,10.80
2022-11-15T22:30:41.253Z,10.40
2022-11-15T22:33:10.101Z,9.70
2022-11-15T22:35:39.207Z,10.00
2022-11-15T22:38:08.447Z,10.40
2022-11-15T22:40:39.785Z,9.30
2022-11-15T22:43:09.542Z,10.70
2022-11-15T22:45:38.612Z,11.00
2022-11-15T22:48:07.387Z,9.70
2022-11-15T22:50:36.196Z,10.80
2022-11-15T22:53:05.103Z,9.50
2022-11-15T22:55:33.909Z,9.90
2022-11-15T22:58:02.756Z,7.80
2022-11-15T23:00:32.090Z,10.20
2022-11-15T23:03:01.352Z,8.80
2022-11-15T23:05:30.447Z,9.80
2022-11-15T23:07:59.339Z,9.60
2022-11-15T23:10:46.773Z,7.70
2022-11-15T23:13:18.806Z,9.70
2022-11-15T23:16:07.648Z,8.20
2022-11-15T23:18:43.265Z,8.70
2022-11-15T23:21:12.967Z,8.60
2022-11-15T23:23:41.910Z,9.60
2022-11-15T23:26:11.488Z,8.90
2022-11-15T23:28:40.320Z,9.10
2022-11-15T23:31:28.890Z,8.80
2022-11-15T23:33:57.707Z,9.40
2022-11-15T23:36:27.440Z,10.10
2022-11-15T23:38:56.781Z,9.50
2022-11-15T23:41:25.641Z,9.20
2022-11-15T23:43:54.782Z,9.20
2022-11-15T23:46:23.595Z,9.20
2022-11-15T23:48:52.463Z,7.70
2022-11-15T23:51:21.350Z,8.90
2022-11-15T23:53:50.258Z,9.20
2022-11-15T23:56:20.301Z,8.10
2022-11-15T23:58:49.777Z,9.10
